Nearby METAR Reports

 

KMTN - Baltimore/Martin, Maryland, USA
Distance from station: SSE 8mi, 13km
Updated: Sat, 25-Oct-2014 1:57am EDT
Clear
Clear
 Wind from calm
Wind: Calm
Temperature: 52°F , 11°C
Dew Point: 41°F , 5°C
Humidity: 67%
Barometer: 29.95 inHg , 1014.2 hPa
Clouds: Clear
Visibility: 10 miles , 16 km
2014/10/25 05:57 KMTN 250557Z AUTO 00000KT 10SM CLR 11/05 A2995 RMK AO2
KDMH - Baltimore/Dwntwn, Maryland, USA
Distance from station: SW 12mi, 19km
Updated: Sat, 25-Oct-2014 1:54am EDT

 
Temperature: 55°F , 13°C
Dew Point: 37°F , 3°C
Humidity: 51%
Barometer: 29.94 inHg , 1013.9 hPa
2014/10/25 05:54 KDMH 250554Z AUTO 13/03 A2994 RMK AO1 SLP137 T01330033 10172 20133 50005
 
KBWI - Balto/Wash Intl, Maryland, USA
Distance from station: SSW 20mi, 33km
Updated: Sat, 25-Oct-2014 1:54am EDT
Clear
Clear
 Wind from W
Wind: W 6 mph , 9 km/h
Temperature: 48°F , 9°C
Wind Chill: 45°F , 7°C
Dew Point: 37°F , 3°C
Humidity: 66%
Barometer: 29.94 inHg , 1013.9 hPa
Clouds: Clear
Visibility: 10 miles , 16 km
2014/10/25 05:54 KBWI 250554Z 27005KT 10SM CLR 09/03 A2994 RMK AO2 SLP138 T00890033 10133 20089 51003
KDMW - Carroll Cnty, Maryland, USA
Distance from station: WNW 30mi, 48km
Updated: Sat, 25-Oct-2014 1:55am EDT
Clear
Clear
 Wind from WNW
Wind: WNW 6 mph , 9 km/h
Temperature: 52°F , 11°C
Dew Point: 39°F , 4°C
Humidity: 62%
Barometer: 29.95 inHg , 1014.2 hPa
Clouds: Clear
Visibility: 10 miles , 16 km
2014/10/25 05:55 KDMW 250555Z AUTO 29005KT 10SM CLR 11/04 A2995 RMK AO2
 
KNAK - Annapolis/Naval, Maryland, USA
Distance from station: S 30mi, 48km
Updated: Sat, 25-Oct-2014 1:54am EDT
Clear
Clear
 Wind from W
Wind: W 6 mph , 9 km/h
Temperature: 52°F , 11°C
Dew Point: 37°F , 3°C
Humidity: 58%
Barometer: 29.94 inHg , 1013.9 hPa
Clouds: Clear
Visibility: 10 miles , 16 km
2014/10/25 05:54 KNAK 250554Z AUTO 28005KT 10SM CLR 11/03 A2994 RMK AO2 SLP140 T01110028 10156 20111 53003
KW29 - Stevensville, Maryland, USA
Distance from station: SSE 31mi, 50km
Updated: Sat, 25-Oct-2014 1:58am EDT

 Wind from WNW
Wind: WNW 5 mph , 7 km/h
Temperature: 54°F , 12°C
Dew Point: 39°F , 4°C
Humidity: 58%
Barometer: 29.94 inHg , 1013.9 hPa
Visibility: 10 miles , 16 km
2014/10/25 05:58 KW29 250558Z AUTO 30004KT 10SM 12/04 A2994 RMK AO1
 
KCGS - College Park, Maryland, USA
Distance from station: SW 38mi, 61km
Updated: Sat, 25-Oct-2014 1:55am EDT
Clear
Clear
 Wind from calm
Wind: Calm
Temperature: 48°F , 9°C
Dew Point: 41°F , 5°C
Humidity: 76%
Barometer: 29.95 inHg , 1014.2 hPa
Clouds: Clear
Visibility: 10 miles , 16 km
2014/10/25 05:55 KCGS 250555Z AUTO 00000KT 10SM CLR 09/05 A2995 RMK AO1
KGAI - Gaithersburg, Maryland, USA
Distance from station: WSW 40mi, 65km
Updated: Sat, 25-Oct-2014 1:55am EDT
Clear
Clear
 Wind from WNW
Wind: WNW 7 mph , 11 km/h
Temperature: 48°F , 9°C
Wind Chill: 45°F , 7°C
Dew Point: 36°F , 2°C
Humidity: 62%
Barometer: 29.99 inHg , 1015.6 hPa
Clouds: Clear
Visibility: 10 miles , 16 km
2014/10/25 05:55 KGAI 250555Z 30006KT 10SM CLR 09/02 A2999 RMK AO1 10140 20090 54000
 
KTHV - York, Pennsylvania, USA
Distance from station: NNW 40mi, 65km
Updated: Sat, 25-Oct-2014 1:53am EDT
Clear
Clear
 Wind from calm
Wind: Calm
Temperature: 45°F , 7°C
Dew Point: 37°F , 3°C
Humidity: 76%
Barometer: 29.94 inHg , 1013.9 hPa
Clouds: Clear
Visibility: 10 miles , 16 km
2014/10/25 05:53 KTHV 250553Z AUTO 00000KT 10SM CLR 07/03 A2994 RMK AO2 SLP141 T00720028 10133 20072 58001
KFDK - Frederick, Maryland, USA
Distance from station: W 47mi, 75km
Updated: Sat, 25-Oct-2014 1:55am EDT
Clear
Clear
 Wind from calm
Wind: Calm
Temperature: 46°F , 8°C
Dew Point: 41°F , 5°C
Humidity: 82%
Barometer: 29.99 inHg , 1015.6 hPa
Clouds: Clear
Visibility: 10 miles , 16 km
2014/10/25 05:55 KFDK 250555Z AUTO 00000KT 10SM CLR 08/05 A2999 RMK AO2
 
KESN - Easton/Newnam, Maryland, USA
Distance from station: SSE 48mi, 78km
Updated: Sat, 25-Oct-2014 2:11am EDT
Clear
Clear
 Wind from calm
Wind: Calm
Temperature: 54°F , 12°C
Dew Point: 43°F , 6°C
Humidity: 67%
Barometer: 29.97 inHg , 1014.9 hPa
Clouds: Clear
Visibility: 10 miles , 16 km
2014/10/25 06:11 KESN 250611Z AUTO 00000KT 10SM CLR 12/06 A2997 RMK AO2 T01150061
KDCA - Washington/Natl, Washington D.c., USA
Distance from station: SW 49mi, 79km
Updated: Sat, 25-Oct-2014 1:52am EDT
Clear
Clear
 Wind from NNW
Wind: NNW 8 mph , 13 km/h
Temperature: 55°F , 13°C
Dew Point: 37°F , 3°C
Humidity: 51%
Barometer: 29.97 inHg , 1014.9 hPa
Clouds: Clear
Visibility: 10 miles , 16 km
2014/10/25 05:52 KDCA 250552Z 33007KT 10SM CLR 13/03 A2997 RMK AO2 SLP147 T01280033 10183 20122 $
 
KLNS - Lancaster, Pennsylvania, USA
Distance from station: N 49mi, 79km
Updated: Sat, 25-Oct-2014 1:53am EDT
Clear
Clear
 Wind from W
Wind: W 8 mph , 13 km/h
Temperature: 46°F , 8°C
Wind Chill: 42°F , 6°C
Dew Point: 37°F , 3°C
Humidity: 71%
Barometer: 29.93 inHg , 1013.5 hPa
Clouds: Clear
Visibility: 10 miles , 16 km
2014/10/25 05:53 KLNS 250553Z AUTO 27007KT 10SM CLR 08/03 A2993 RMK AO2 SLP134 T00780033 10133 20067 51004
KILG - Wilmington, Delaware, USA
Distance from station: ENE 50mi, 81km
Updated: Sat, 25-Oct-2014 1:51am EDT
Clear
Clear
 Wind from WNW
Wind: WNW 7 mph , 11 km/h
Temperature: 52°F , 11°C
Dew Point: 39°F , 4°C
Humidity: 62%
Barometer: 29.92 inHg , 1013.2 hPa
Clouds: Clear
Visibility: 10 miles , 16 km
2014/10/25 05:51 KILG 250551Z 30006KT 10SM CLR 11/04 A2992 RMK AO2 SLP130 T01060039 10161 20100 52005